Time;durP1;ratioP1;P1;durP2;ratioP2;P2;SDS_P1;SDS_P2;PMS_P1;PMS_P2;Temp;Humidity;BMP_temperature;BMP_pressure;BME280_temperature;BME280_humidity;BME280_pressure;Samples;Min_cycle;Max_cycle;Signal;HPM_P1;HPM_P2
2022/02/17 00:01:45;;;;;;;;;44.50;39.50;;;;;5.45;96.60;98822.88;6282092;20;2858736;-51
2022/02/17 00:04:14;;;;;;;;;48.00;42.00;;;;;5.33;96.59;98813.75;6280646;20;2843155;-50
2022/02/17 00:06:43;;;;;;;;;52.33;40.33;;;;;5.33;96.60;98813.75;6282095;20;3629426;-48
2022/02/17 00:09:13;;;;;;;;;46.33;41.00;;;;;5.24;96.43;98803.63;6309519;20;2840289;-45
2022/02/17 00:11:42;;;;;;;;;52.50;42.50;;;;;5.32;96.70;98795.19;6312058;20;2841951;-45
2022/02/17 00:14:11;;;;;;;;;59.00;44.00;;;;;5.28;96.65;98790.06;6282514;20;2876323;-47
2022/02/17 00:16:40;;;;;;;;;48.00;39.00;;;;;5.34;97.50;98777.34;6281587;20;2861729;-46
2022/02/17 00:19:09;;;;;;;;;44.00;38.67;;;;;5.02;98.49;98772.84;6281125;20;3603481;-47
2022/02/17 00:21:39;;;;;;;;;47.67;40.00;;;;;5.16;97.91;98784.53;6311578;20;3604377;-44
2022/02/17 00:24:08;;;;;;;;;49.67;40.00;;;;;5.23;97.65;98792.09;6311222;20;2861830;-45
2022/02/17 00:26:37;;;;;;;;;36.50;36.00;;;;;5.31;98.50;98786.38;6312399;20;2860664;-44
2022/02/17 00:29:07;;;;;;;;;46.67;41.00;;;;;5.25;97.26;98806.19;6280111;20;2866923;-45
2022/02/17 00:31:37;;;;;;;;;47.33;37.33;;;;;5.34;96.83;98798.66;6312388;20;3638764;-46
2022/02/17 00:34:10;;;;;;;;;44.33;37.00;;;;;5.20;97.29;98781.63;6311687;20;3631539;-44
2022/02/17 00:36:39;;;;;;;;;36.50;33.50;;;;;5.08;98.08;98776.97;6311410;20;2857723;-45
2022/02/17 00:39:09;;;;;;;;;43.00;36.67;;;;;5.36;96.55;98773.66;6278618;20;2871252;-47
2022/02/17 00:41:38;;;;;;;;;29.00;23.33;;;;;5.16;97.08;98769.44;6312148;20;3588780;-52
2022/02/17 00:44:06;;;;;;;;;40.00;36.00;;;;;5.03;97.59;98769.25;6278402;20;2860812;-47
2022/02/17 00:46:36;;;;;;;;;45.67;39.00;;;;;5.04;98.62;98770.09;6281399;20;2881576;-45
2022/02/17 00:49:06;;;;;;;;;46.33;39.00;;;;;5.27;97.87;98763.53;6311392;20;2855655;-52
2022/02/17 00:51:35;;;;;;;;;44.00;35.67;;;;;5.44;97.88;98762.59;6311798;20;3613888;-45
2022/02/17 00:54:06;;;;;;;;;36.33;30.33;;;;;5.17;97.92;98760.50;6314879;20;2857821;-45
2022/02/17 00:56:36;;;;;;;;;53.67;37.67;;;;;5.24;98.34;98761.06;6316093;20;3642311;-46
2022/02/17 00:59:06;;;;;;;;;41.00;33.00;;;;;5.39;97.50;98744.22;6315537;20;2861759;-45
2022/02/17 01:01:36;;;;;;;;;46.67;37.33;;;;;5.30;98.03;98741.22;6315148;20;2877417;-46
2022/02/17 01:04:05;;;;;;;;;44.67;36.00;;;;;5.19;98.21;98736.50;6316547;20;3621276;-50
2022/02/17 01:06:39;;;;;;;;;39.50;38.00;;;;;5.12;99.37;98735.97;6314773;20;2855488;-46
2022/02/17 01:09:10;;;;;;;;;48.50;39.50;;;;;5.07;99.38;98736.19;6282202;20;2879469;-47
2022/02/17 01:11:41;;;;;;;;;43.67;37.00;;;;;5.20;99.13;98722.25;6285624;20;2870121;-46
2022/02/17 01:14:12;;;;;;;;;47.67;35.67;;;;;5.41;98.62;98714.84;6316887;20;3635732;-45
2022/02/17 01:16:41;;;;;;;;;38.33;33.33;;;;;5.48;98.13;98714.44;6315004;20;2869128;-43
2022/02/17 01:19:10;;;;;;;;;33.50;31.50;;;;;5.45;98.00;98711.94;6316216;20;2846249;-46
2022/02/17 01:21:39;;;;;;;;;36.50;31.50;;;;;5.52;97.76;98711.59;6281670;20;2846193;-45
2022/02/17 01:24:08;;;;;;;;;34.00;31.50;;;;;5.44;97.88;98709.34;6280395;20;2834653;-45
2022/02/17 01:26:38;;;;;;;;;41.00;34.33;;;;;5.53;97.76;98714.19;6284920;20;2873283;-45
2022/02/17 01:29:07;;;;;;;;;39.33;36.33;;;;;5.55;98.04;98700.75;6314690;20;3613781;-47
2022/02/17 01:31:36;;;;;;;;;32.50;30.00;;;;;5.43;97.89;98692.53;6316404;20;2850394;-46
2022/02/17 01:34:05;;;;;;;;;34.00;30.00;;;;;5.49;98.17;98691.31;6283890;20;2859049;-47
2022/02/17 01:36:35;;;;;;;;;39.00;31.50;;;;;5.63;97.45;98690.53;6281570;20;2846148;-46
2022/02/17 01:39:04;;;;;;;;;36.50;30.50;;;;;5.71;97.40;98675.84;6283441;20;2854431;-45
2022/02/17 01:41:34;;;;;;;;;38.33;35.67;;;;;5.52;97.60;98674.31;6284420;20;2860770;-45
2022/02/17 01:44:03;;;;;;;;;34.67;31.67;;;;;5.63;98.43;98661.25;6316635;20;3577472;-45
2022/02/17 01:46:43;;;;;;;;;36.50;30.00;;;;;5.73;97.60;98662.44;6284732;20;2856681;-45
2022/02/17 01:49:12;;;;;;;;;39.00;34.50;;;;;5.50;97.97;98651.31;6281100;20;2861738;-44
2022/02/17 01:51:41;;;;;;;;;36.00;32.00;;;;;5.67;97.53;98633.50;6282829;20;2857563;-44
2022/02/17 01:54:10;;;;;;;;;38.33;31.00;;;;;5.71;98.01;98629.69;6284758;20;2862742;-45
2022/02/17 01:56:43;;;;;;;;;34.33;31.00;;;;;5.70;97.38;98635.97;6316832;20;3590874;-45
2022/02/17 01:59:13;;;;;;;;;31.00;28.50;;;;;5.97;96.96;98622.00;6310468;20;2500405;-45
2022/02/17 02:01:41;;;;;;;;;31.50;30.00;;;;;5.83;97.83;98620.13;6281667;20;2500277;-45
2022/02/17 02:04:10;;;;;;;;;34.50;29.00;;;;;5.70;97.32;98626.19;6283632;20;2858596;-46
2022/02/17 02:06:39;;;;;;;;;37.00;32.00;;;;;6.17;96.71;98616.34;6283219;20;2851284;-47
2022/02/17 02:09:08;;;;;;;;;33.50;29.00;;;;;5.91;97.41;98626.72;6283935;20;2836704;-47
2022/02/17 02:11:36;;;;;;;;;31.00;26.00;;;;;6.04;96.60;98624.22;6278503;20;2500341;-46
2022/02/17 02:14:03;;;;;;;;;28.00;23.00;;;;;6.03;95.90;98592.31;6284706;20;2839886;-47
2022/02/17 02:16:31;;;;;;;;;33.50;29.00;;;;;6.22;96.18;98573.41;6281422;20;2500262;-46
2022/02/17 02:19:02;;;;;;;;;33.00;30.00;;;;;6.24;95.64;98571.50;6283649;20;2859768;-45
2022/02/17 02:21:31;;;;;;;;;35.50;28.00;;;;;6.12;95.64;98567.78;6282621;20;2869017;-45
2022/02/17 02:24:00;;;;;;;;;46.50;39.00;;;;;6.32;95.27;98556.75;6284649;20;2855606;-48
2022/02/17 02:26:30;;;;;;;;;36.33;26.00;;;;;6.02;96.12;98547.97;6281081;20;2868191;-48
2022/02/17 02:29:00;;;;;;;;;30.00;24.50;;;;;6.27;95.76;98550.84;6314727;20;2866909;-47
2022/02/17 02:31:29;;;;;;;;;35.50;29.50;;;;;6.34;95.13;98569.97;6283067;20;2847252;-45
2022/02/17 02:33:57;;;;;;;;;34.00;26.50;;;;;6.58;94.08;98562.22;6285151;20;2851407;-45
2022/02/17 02:36:25;;;;;;;;;30.00;23.00;;;;;6.31;94.37;98531.03;6282424;20;2850309;-45
2022/02/17 02:38:58;;;;;;;;;24.50;24.50;;;;;6.48;93.83;98523.81;6282562;20;2840976;-56
2022/02/17 02:41:27;;;;;;;;;42.00;27.50;;;;;6.68;93.80;98550.03;6280057;20;2859717;-56
2022/02/17 02:44:00;;;;;;;;;24.33;22.67;;;;;6.56;93.07;98556.16;6281517;20;3569027;-53
2022/02/17 02:46:28;;;;;;;;;22.00;22.00;;;;;6.47;93.72;98546.91;6278029;20;2500277;-56
2022/02/17 02:48:57;;;;;;;;;23.33;19.67;;;;;6.54;93.19;98552.72;6282484;20;3562850;-56
2022/02/17 02:51:25;;;;;;;;;22.00;22.00;;;;;6.65;93.25;98560.06;6283244;20;2498187;-57
2022/02/17 02:53:53;;;;;;;;;22.00;21.00;;;;;6.75;92.36;98546.03;6284269;20;2829519;-56
2022/02/17 02:56:22;;;;;;;;;25.00;25.00;;;;;6.63;92.87;98538.81;6280899;20;2500363;-46
2022/02/17 02:58:50;;;;;;;;;27.00;24.50;;;;;6.66;93.14;98551.97;6279127;20;2500504;-45
2022/02/17 03:01:21;;;;;;;;;18.00;15.50;;;;;6.60;93.22;98531.84;6285847;20;2819022;-46
2022/02/17 03:03:49;;;;;;;;;25.33;22.33;;;;;6.71;92.51;98528.50;6282411;20;3573275;-47
2022/02/17 03:06:18;;;;;;;;;25.50;21.00;;;;;6.47;93.36;98519.41;6279572;20;2833612;-46
2022/02/17 03:08:46;;;;;;;;;22.00;20.50;;;;;6.74;93.05;98523.00;6278149;20;2500267;-46
2022/02/17 03:11:14;;;;;;;;;25.50;21.50;;;;;6.57;92.70;98509.88;6276491;20;2500305;-55
2022/02/17 03:13:42;;;;;;;;;26.00;23.00;;;;;6.57;93.11;98521.38;6278668;20;2500296;-43
2022/02/17 03:16:11;;;;;;;;;22.00;19.67;;;;;6.69;92.15;98514.44;6277317;20;3552520;-43
2022/02/17 03:18:40;;;;;;;;;15.67;15.67;;;;;6.56;92.77;98508.16;6277878;20;3549309;-49
2022/02/17 03:21:09;;;;;;;;;31.50;24.00;;;;;6.61;92.28;98511.41;6281908;20;2861838;-47
2022/02/17 03:23:37;;;;;;;;;28.00;23.50;;;;;6.63;91.81;98493.47;6281861;20;2847159;-47
2022/02/17 03:26:07;;;;;;;;;22.33;21.00;;;;;6.51;92.22;98484.47;6282108;20;3560916;-48
2022/02/17 03:28:35;;;;;;;;;30.50;21.50;;;;;6.55;91.96;98477.94;6314405;20;2855497;-44
2022/02/17 03:31:04;;;;;;;;;16.33;14.00;;;;;6.75;90.74;98473.16;6282749;20;2788927;-44
2022/02/17 03:33:32;;;;;;;;;25.50;20.00;;;;;6.81;90.72;98460.25;6316607;20;2828356;-43
2022/02/17 03:36:01;;;;;;;;;23.67;21.33;;;;;6.94;89.99;98454.13;6283222;20;3579395;-44
2022/02/17 03:38:31;;;;;;;;;25.50;21.50;;;;;6.91;89.54;98443.66;6282891;20;2850241;-44
2022/02/17 03:40:58;;;;;;;;;18.00;18.00;;;;;6.90;90.12;98429.47;6283096;20;2841918;-45
2022/02/17 03:43:27;;;;;;;;;21.00;18.00;;;;;6.63;90.23;98409.94;6280916;20;3562824;-43
2022/02/17 03:45:55;;;;;;;;;21.00;15.50;;;;;6.87;89.46;98412.78;6313651;20;2833817;-43
2022/02/17 03:48:23;;;;;;;;;21.00;17.00;;;;;6.66;89.88;98418.63;6285255;20;2821129;-46
2022/02/17 03:50:50;;;;;;;;;20.50;18.00;;;;;7.02;89.27;98406.41;6281716;20;2500419;-43
2022/02/17 03:53:20;;;;;;;;;17.40;15.20;;;;;6.92;90.07;98421.34;6308375;20;2820147;-47
2022/02/17 03:55:49;;;;;;;;;23.67;17.67;;;;;7.08;89.33;98424.69;6279852;20;3559617;-48
2022/02/17 04:01:03;;;;;;;;;18.00;15.50;;;;;7.06;89.81;98418.63;6280857;20;2820239;-46
2022/02/17 04:03:32;;;;;;;;;20.33;18.67;;;;;7.13;89.46;98411.03;6282758;20;3563856;-46
2022/02/17 04:06:00;;;;;;;;;12.33;11.33;;;;;7.09;88.64;98409.53;6281882;20;3510637;-46
2022/02/17 04:08:28;;;;;;;;;21.00;19.00;;;;;6.98;88.42;98413.78;6313311;20;2833585;-45
2022/02/17 04:10:57;;;;;;;;;23.00;19.67;;;;;7.03;88.54;98416.16;6281881;20;3559691;-46
2022/02/17 04:13:25;;;;;;;;;14.67;12.33;;;;;7.14;87.73;98402.94;6280821;20;3526443;-51
2022/02/17 04:15:53;;;;;;;;;19.00;17.00;;;;;7.07;88.11;98412.31;6312134;20;2831519;-48
2022/02/17 04:18:22;;;;;;;;;17.00;14.00;;;;;6.80;88.73;98415.88;6281055;20;2817137;-47
2022/02/17 04:20:51;;;;;;;;;21.00;13.33;;;;;6.88;88.79;98417.19;6312579;20;3534631;-45
2022/02/17 04:23:19;;;;;;;;;20.33;17.00;;;;;7.10;88.04;98406.75;6280623;20;3550230;-46
2022/02/17 04:25:48;;;;;;;;;19.00;17.00;;;;;7.08;87.79;98422.00;6312924;20;2819029;-45
2022/02/17 04:28:17;;;;;;;;;20.33;17.00;;;;;6.85;88.69;98428.91;6285253;20;3554431;-45
2022/02/17 04:30:45;;;;;;;;;22.00;18.67;;;;;7.26;87.54;98412.75;6316556;20;3566929;-47
2022/02/17 04:33:14;;;;;;;;;20.33;17.00;;;;;7.13;87.33;98432.38;6284162;20;3550424;-53
2022/02/17 04:35:43;;;;;;;;;17.00;17.00;;;;;7.26;87.05;98433.25;6317133;20;3551281;-53
2022/02/17 04:38:11;;;;;;;;;21.00;17.00;;;;;7.14;87.17;98445.63;6289450;20;2824236;-53
2022/02/17 04:43:24;;;;;;;;;13.00;12.50;;;;;7.13;86.94;98437.72;6287126;20;2807600;-45
2022/02/17 04:45:52;;;;;;;;;16.00;15.00;;;;;7.11;87.56;98426.28;6285044;20;2494019;-45
2022/02/17 04:48:27;;;;;;;;;20.00;20.00;;;;;7.20;87.12;98428.34;6287053;20;3562757;-44
2022/02/17 04:50:55;;;;;;;;;22.50;20.50;;;;;7.24;87.31;98420.03;6283510;20;2500308;-47
2022/02/17 04:53:24;;;;;;;;;13.00;12.00;;;;;7.01;87.25;98399.38;6285895;20;3546152;-45
2022/02/17 04:55:52;;;;;;;;;18.00;18.00;;;;;7.13;87.31;98387.00;6313203;20;2496096;-44
2022/02/17 04:58:23;;;;;;;;;15.00;15.00;;;;;6.88;87.84;98369.16;6284492;20;3535650;-44
2022/02/17 05:00:52;;;;;;;;;22.33;16.67;;;;;7.09;88.53;98375.69;6280346;20;3554536;-46
2022/02/17 05:03:26;;;;;;;;;25.67;20.67;;;;;6.93;89.27;98377.72;6281837;20;3558701;-44
2022/02/17 05:05:56;;;;;;;;;18.00;17.00;;;;;6.79;92.31;98387.50;6286897;20;2833611;-53
2022/02/17 05:08:25;;;;;;;;;20.33;20.33;;;;;6.46;94.21;98379.06;6284302;20;3565980;-52
2022/02/17 05:10:54;;;;;;;;;18.33;18.00;;;;;6.58;95.61;98378.22;6315495;20;3539832;-50
2022/02/17 05:13:22;;;;;;;;;27.50;21.00;;;;;6.63;96.05;98376.13;6317242;20;2837913;-50
2022/02/17 05:15:52;;;;;;;;;23.00;17.00;;;;;6.46;97.28;98381.72;6283705;20;2501171;-50
2022/02/17 05:18:21;;;;;;;;;24.67;19.33;;;;;6.42;98.66;98375.72;6284541;20;3561827;-50
2022/02/17 05:20:50;;;;;;;;;27.33;21.67;;;;;6.36;99.15;98370.81;6285959;20;3574177;-50
2022/02/17 05:23:18;;;;;;;;;25.33;21.00;;;;;6.47;99.37;98376.28;6281150;20;3577303;-50
2022/02/17 05:25:47;;;;;;;;;25.00;21.00;;;;;6.32;99.60;98383.50;6284892;20;2500804;-47
2022/02/17 05:28:16;;;;;;;;;26.00;20.00;;;;;6.16;100.00;98382.75;6281172;20;2496122;-48
2022/02/17 05:30:44;;;;;;;;;26.00;22.00;;;;;6.20;100.00;98370.09;6283635;20;2494171;-53
2022/02/17 05:33:16;;;;;;;;;32.00;26.00;;;;;6.20;100.00;98368.28;6293425;20;2850266;-50
2022/02/17 05:35:44;;;;;;;;;29.00;23.00;;;;;6.22;100.00;98361.06;6280693;20;2500382;-50
2022/02/17 05:38:12;;;;;;;;;31.00;24.00;;;;;6.06;100.00;98360.34;6281604;20;2500467;-45
2022/02/17 05:40:40;;;;;;;;;17.50;16.00;;;;;6.30;100.00;98358.75;6284540;20;2821110;-44
2022/02/17 05:43:09;;;;;;;;;25.67;22.67;;;;;6.38;100.00;98361.75;6284518;20;3576308;-44
2022/02/17 05:45:37;;;;;;;;;30.33;23.33;;;;;6.24;100.00;98358.28;6284221;20;3588809;-44
2022/02/17 05:48:05;;;;;;;;;26.00;22.50;;;;;6.43;100.00;98360.59;6281441;20;2500293;-43
2022/02/17 05:50:33;;;;;;;;;21.00;17.00;;;;;6.20;100.00;98340.78;6282704;20;2500393;-46
2022/02/17 05:53:03;;;;;;;;;23.33;21.67;;;;;6.39;100.00;98349.28;6282579;20;3557590;-45
2022/02/17 05:55:31;;;;;;;;;30.00;21.50;;;;;6.41;100.00;98338.53;6309097;20;2500251;-47
2022/02/17 05:58:00;;;;;;;;;32.00;25.00;;;;;6.32;100.00;98330.19;6280498;20;2858620;-48
2022/02/17 06:00:28;;;;;;;;;22.00;21.00;;;;;6.12;100.00;98330.63;6281399;20;2500407;-49
2022/02/17 06:02:57;;;;;;;;;29.33;23.67;;;;;6.32;100.00;98316.84;6281588;20;3571084;-47
2022/02/17 06:05:25;;;;;;;;;24.00;20.00;;;;;6.37;100.00;98301.41;6287515;20;2829452;-46
2022/02/17 06:07:52;;;;;;;;;20.00;16.00;;;;;6.40;100.00;98296.81;6291954;20;2500376;-46
2022/02/17 06:10:22;;;;;;;;;24.67;21.00;;;;;6.50;100.00;98280.13;6283625;20;3571101;-48
2022/02/17 06:12:53;;;;;;;;;24.33;18.33;;;;;6.34;100.00;98274.94;6314855;20;3558559;-47
2022/02/17 06:15:22;;;;;;;;;28.00;23.00;;;;;6.31;100.00;98282.28;6314804;20;2840932;-45
2022/02/17 06:17:51;;;;;;;;;25.00;20.67;;;;;6.41;100.00;98269.22;6284934;20;3579451;-47
2022/02/17 06:20:20;;;;;;;;;27.00;23.50;;;;;6.42;100.00;98278.91;6280384;20;2844025;-45
2022/02/17 06:22:50;;;;;;;;;29.50;25.50;;;;;6.49;100.00;98281.06;6284322;20;2849204;-44
2022/02/17 06:25:20;;;;;;;;;17.00;17.00;;;;;6.34;100.00;98284.75;6283104;20;3557508;-49
2022/02/17 06:27:50;;;;;;;;;27.00;22.00;;;;;6.42;100.00;98281.56;6311547;20;2835692;-47
2022/02/17 06:30:23;;;;;;;;;16.00;16.00;;;;;6.27;100.00;98279.00;6283681;20;2825301;-47
2022/02/17 06:32:56;;;;;;;;;19.00;18.50;;;;;6.18;100.00;98300.91;6285882;20;2823165;-46
2022/02/17 06:35:32;;;;;;;;;20.67;19.33;;;;;6.15;100.00;98295.78;6283820;20;3562757;-47
2022/02/17 06:38:02;;;;;;;;;30.50;24.00;;;;;6.24;100.00;98289.84;6285772;20;2860781;-51
2022/02/17 06:40:33;;;;;;;;;24.00;19.67;;;;;6.31;100.00;98290.28;6283470;20;3570248;-48
2022/02/17 06:43:12;;;;;;;;;24.00;20.00;;;;;6.53;100.00;98284.34;6281111;20;2500267;-43
2022/02/17 06:45:43;;;;;;;;;24.00;20.50;;;;;6.45;100.00;98292.03;6283029;20;2498171;-48
2022/02/17 06:48:17;;;;;;;;;25.00;23.50;;;;;6.41;100.00;98306.53;6279853;20;2500372;-49
2022/02/17 06:50:48;;;;;;;;;23.50;21.00;;;;;6.56;100.00;98284.19;6284414;20;2838976;-44
2022/02/17 06:53:17;;;;;;;;;23.67;21.67;;;;;6.12;100.00;98293.31;6285339;20;3585698;-43
2022/02/17 06:55:45;;;;;;;;;33.50;27.00;;;;;6.57;100.00;98283.19;6280695;20;2500256;-42
2022/02/17 06:58:16;;;;;;;;;30.50;24.50;;;;;6.52;100.00;98298.66;6283824;20;2851315;-43
2022/02/17 07:00:46;;;;;;;;;27.50;25.00;;;;;6.34;100.00;98274.09;6280141;20;2852376;-53
2022/02/17 07:03:15;;;;;;;;;26.50;24.00;;;;;6.53;100.00;98282.56;6283592;20;2846140;-52
2022/02/17 07:05:42;;;;;;;;;22.00;21.00;;;;;6.57;100.00;98269.88;6281780;20;2500333;-49
2022/02/17 07:08:12;;;;;;;;;30.50;26.50;;;;;6.60;100.00;98283.00;6281952;20;2858624;-51
2022/02/17 07:10:55;;;;;;;;;26.00;25.00;;;;;6.75;100.00;98281.94;6285073;20;2844086;-54
2022/02/17 07:13:27;;;;;;;;;20.67;16.33;;;;;6.54;100.00;98270.09;6279294;20;3557532;-51
2022/02/17 07:15:57;;;;;;;;;28.67;24.00;;;;;6.71;100.00;98267.09;6283564;20;3575279;-51
2022/02/17 07:18:27;;;;;;;;;25.50;23.00;;;;;6.61;100.00;98266.06;6282037;20;2844231;-54
2022/02/17 07:20:56;;;;;;;;;29.00;21.00;;;;;6.80;100.00;98271.81;6282662;20;2494082;-55
2022/02/17 07:23:26;;;;;;;;;30.00;24.50;;;;;6.57;100.00;98268.06;6279150;20;2494009;-54
2022/02/17 07:25:55;;;;;;;;;24.50;24.00;;;;;6.88;100.00;98252.63;6284119;20;2836721;-52
2022/02/17 07:28:26;;;;;;;;;23.33;20.00;;;;;6.60;100.00;98233.16;6280072;20;3562746;-55
2022/02/17 07:30:56;;;;;;;;;20.50;20.00;;;;;6.67;100.00;98222.94;6314923;20;2828801;-50
2022/02/17 07:33:25;;;;;;;;;25.00;21.00;;;;;6.73;100.00;98227.84;6280638;20;3562714;-51
2022/02/17 07:35:53;;;;;;;;;30.50;26.50;;;;;6.84;100.00;98216.44;6283170;20;2855434;-51
2022/02/17 07:38:40;;;;;;;;;21.00;21.00;;;;;6.67;100.00;98200.78;6280360;20;2500438;-54
2022/02/17 07:41:08;;;;;;;;;26.00;22.50;;;;;6.93;100.00;98201.63;6279567;20;2491938;-53
2022/02/17 07:43:36;;;;;;;;;27.50;23.00;;;;;6.72;100.00;98191.47;6283503;20;2839957;-48
2022/02/17 07:46:04;;;;;;;;;29.50;20.00;;;;;6.84;100.00;98228.91;6282294;20;2841941;-48
2022/02/17 07:48:33;;;;;;;;;19.00;19.00;;;;;6.92;99.90;98226.56;6283296;20;2812771;-51
2022/02/17 07:51:01;;;;;;;;;27.50;22.50;;;;;7.08;99.45;98223.66;6281937;20;2823192;-49
2022/02/17 07:53:28;;;;;;;;;21.00;20.00;;;;;7.07;98.96;98230.81;6281129;20;2500392;-52
2022/02/17 07:55:58;;;;;;;;;27.50;22.50;;;;;7.13;98.36;98230.38;6276955;20;2842976;-55
2022/02/17 07:58:27;;;;;;;;;12.50;10.50;;;;;6.87;98.54;98218.03;6281119;20;2790424;-54
2022/02/17 08:00:55;;;;;;;;;22.00;20.00;;;;;7.16;98.75;98199.94;6276398;20;2500262;-53
2022/02/17 08:03:23;;;;;;;;;23.50;21.00;;;;;7.04;98.36;98183.03;6279859;20;2500291;-52
2022/02/17 08:05:51;;;;;;;;;24.50;21.00;;;;;7.11;97.90;98154.94;6280820;20;2496089;-52
2022/02/17 08:08:39;;;;;;;;;29.00;22.00;;;;;7.44;97.49;98154.28;6280578;20;2835713;-54
2022/02/17 08:11:10;;;;;;;;;24.00;23.00;;;;;7.33;97.00;98129.34;6283094;20;2852333;-54
2022/02/17 08:13:39;;;;;;;;;20.00;19.33;;;;;7.59;97.34;98120.25;6280349;20;3551400;-53
2022/02/17 08:16:07;;;;;;;;;26.00;23.00;;;;;7.47;95.97;98142.53;6279678;20;2492006;-54
2022/02/17 08:18:35;;;;;;;;;28.00;21.50;;;;;7.35;95.42;98149.63;6275822;20;2498184;-52
2022/02/17 08:21:03;;;;;;;;;27.50;20.50;;;;;7.72;94.27;98151.41;6280183;20;2500346;-53
2022/02/17 08:23:33;;;;;;;;;25.67;21.33;;;;;7.64;94.50;98123.44;6281365;20;3568429;-51
2022/02/17 08:26:03;;;;;;;;;25.00;22.50;;;;;7.63;93.18;98121.72;6280151;20;2836767;-53
2022/02/17 08:28:30;;;;;;;;;22.00;18.00;;;;;7.78;92.67;98142.91;6280428;20;2500335;-48
2022/02/17 08:30:58;;;;;;;;;26.00;20.00;;;;;7.80;92.30;98151.69;6280267;20;2492380;-55
2022/02/17 08:33:26;;;;;;;;;18.00;17.00;;;;;8.10;90.92;98162.72;6279796;20;2498304;-49
2022/02/17 08:35:54;;;;;;;;;22.50;18.00;;;;;7.87;91.59;98147.56;6285369;20;2824203;-54
2022/02/17 08:38:31;;;;;;;;;21.00;17.00;;;;;8.27;90.59;98163.28;6279445;20;2500271;-56
2022/02/17 08:41:00;;;;;;;;;29.00;23.00;;;;;8.53;88.98;98161.25;6280732;20;2851286;-54
2022/02/17 08:43:29;;;;;;;;;25.00;23.50;;;;;8.21;89.99;98136.97;6280915;20;2850315;-53
2022/02/17 08:45:57;;;;;;;;;16.00;14.67;;;;;8.44;89.59;98140.59;6279575;20;3556575;-54
2022/02/17 08:48:28;;;;;;;;;22.33;19.00;;;;;8.04;89.90;98125.75;6280007;20;3566976;-55
2022/02/17 08:50:58;;;;;;;;;19.67;17.00;;;;;8.53;89.21;98122.00;6279933;20;3538803;-53
2022/02/17 08:53:28;;;;;;;;;16.00;14.50;;;;;8.46;87.85;98110.09;6308192;20;2491969;-52
2022/02/17 08:55:57;;;;;;;;;21.00;17.33;;;;;8.65;86.50;98109.47;6280269;20;3544009;-54
2022/02/17 08:58:25;;;;;;;;;22.50;16.00;;;;;8.74;86.85;98124.81;6312967;20;2819005;-55
2022/02/17 09:00:55;;;;;;;;;20.00;16.67;;;;;8.73;87.33;98114.22;6277254;20;3554384;-51
2022/02/17 09:03:23;;;;;;;;;21.50;17.00;;;;;8.74;86.52;98094.50;6312049;20;2491941;-53
2022/02/17 09:05:51;;;;;;;;;27.00;20.00;;;;;9.19;85.90;98119.44;6277795;20;2496201;-51
2022/02/17 09:08:38;;;;;;;;;20.00;15.00;;;;;9.11;84.63;98104.94;6277876;20;2498197;-51
2022/02/17 09:11:07;;;;;;;;;18.50;18.00;;;;;9.28;83.55;98091.03;6279636;20;2492480;-49
2022/02/17 09:13:35;;;;;;;;;14.67;13.67;;;;;9.19;83.40;98095.34;6279084;20;2804468;-52
2022/02/17 09:16:04;;;;;;;;;15.67;14.00;;;;;9.04;83.22;98082.34;6316218;20;3526321;-54
2022/02/17 09:18:33;;;;;;;;;15.67;13.67;;;;;9.21;83.04;98095.19;6313127;20;3538751;-52
2022/02/17 09:21:02;;;;;;;;;14.67;14.67;;;;;9.64;83.51;98097.88;6317441;20;3537716;-51
2022/02/17 09:24:06;;;;;;;;;16.33;11.00;;;;;9.71;82.10;98078.59;6281151;20;3527340;-50
2022/02/17 09:26:36;;;;;;;;;20.33;14.00;;;;;10.07;80.62;98082.66;6315377;20;3561694;-51
2022/02/17 09:29:08;;;;;;;;;20.00;15.00;;;;;9.71;80.60;98071.38;6318766;20;2816975;-51
2022/02/17 09:31:57;;;;;;;;;16.67;12.67;;;;;9.83;80.69;98074.88;6284789;20;3536686;-52
2022/02/17 09:34:27;;;;;;;;;8.20;7.80;;;;;9.97;79.61;98060.31;6343785;20;2755555;-50
2022/02/17 09:36:55;;;;;;;;;14.50;11.00;;;;;10.27;78.20;98084.53;6318231;20;2784770;-51
2022/02/17 09:39:25;;;;;;;;;9.00;8.50;;;;;10.25;78.46;98086.47;6283616;20;2745056;-51
2022/02/17 09:41:55;;;;;;;;;11.50;9.50;;;;;10.09;78.18;98088.75;6287669;20;2774222;-55
2022/02/17 09:44:23;;;;;;;;;8.00;8.00;;;;;10.37;78.23;98078.34;6286396;20;2739812;-53
2022/02/17 09:46:52;;;;;;;;;12.00;12.00;;;;;10.12;77.95;98075.09;6281538;20;2790950;-50
2022/02/17 09:49:21;;;;;;;;;11.00;10.00;;;;;10.29;78.43;98066.47;6310902;20;2791988;-50
2022/02/17 09:51:52;;;;;;;;;9.50;9.50;;;;;10.57;78.18;98057.84;6283342;20;2762924;-53
2022/02/17 09:55:26;;;;;;;;;7.00;5.50;;;;;10.30;76.80;98045.88;6288358;20;2750366;-55
2022/02/17 09:57:54;;;;;;;;;9.00;8.00;;;;;10.63;75.56;98034.00;6314304;20;2744037;-50
2022/02/17 10:00:22;;;;;;;;;10.00;8.00;;;;;10.98;73.87;98020.13;6281866;20;2763788;-54
2022/02/17 10:02:52;;;;;;;;;10.00;8.80;;;;;10.94;73.40;98025.91;6312415;20;2760724;-54
2022/02/17 10:05:21;;;;;;;;;12.60;10.40;;;;;10.73;72.63;98008.03;6304608;20;2790853;-53
2022/02/17 10:08:38;;;;;;;;;8.00;7.80;;;;;11.35;73.26;98007.88;6310724;20;2748164;-54
2022/02/17 10:11:25;;;;;;;;;8.50;7.00;;;;;10.93;73.07;97986.63;6319288;20;2749291;-51
2022/02/17 10:14:12;;;;;;;;;8.25;8.25;;;;;10.83;72.35;97983.06;6332499;20;1809903;-56
2022/02/17 10:17:14;;;;;;;;;9.00;8.00;;;;;10.89;71.70;97979.81;6317406;20;2744013;-56
2022/02/17 10:19:50;;;;;;;;;9.50;8.00;;;;;11.16;71.82;97980.00;6282417;20;2754441;-55
2022/02/17 10:22:30;;;;;;;;;9.00;9.00;;;;;11.05;70.90;97996.22;6282763;20;2729421;-51
2022/02/17 10:25:00;;;;;;;;;10.50;9.00;;;;;10.84;71.47;97974.00;6282682;20;2767989;-53
2022/02/17 10:27:34;;;;;;;;;12.00;9.00;;;;;11.08;72.09;97985.22;6287186;20;2749284;-52
2022/02/17 10:30:13;;;;;;;;;11.50;11.50;;;;;11.14;71.63;97976.63;6278813;20;2814844;-56
2022/02/17 10:33:00;;;;;;;;;9.67;9.67;;;;;11.48;71.17;97961.88;6283988;20;2773174;-54
2022/02/17 10:35:30;;;;;;;;;12.60;9.80;;;;;11.51;70.63;97954.41;6341823;20;2784624;-53
2022/02/17 10:38:02;;;;;;;;;12.00;11.00;;;;;11.83;71.59;97947.84;6284306;20;2790928;-55
2022/02/17 10:40:34;;;;;;;;;13.00;11.00;;;;;11.70;70.84;97947.31;6284151;20;2789861;-54
2022/02/17 10:43:13;;;;;;;;;9.50;9.00;;;;;11.57;69.04;97950.28;6287829;20;2766934;-54
2022/02/17 10:45:48;;;;;;;;;13.00;10.00;;;;;11.84;68.80;97955.75;6280759;20;2788891;-54
2022/02/17 10:48:26;;;;;;;;;7.50;7.50;;;;;11.77;68.34;97951.09;6287257;20;2732540;-51
2022/02/17 10:51:14;;;;;;;;;10.33;10.33;;;;;11.60;69.30;97950.84;6279523;20;2789854;-51
2022/02/17 10:53:58;;;;;;;;;10.00;10.00;;;;;11.62;68.40;97945.34;6340455;20;2783606;-54
2022/02/17 10:56:31;;;;;;;;;10.00;6.00;;;;;11.95;68.57;97924.34;6282792;20;2753399;-53
2022/02/17 11:00:01;;;;;;;;;11.00;11.00;;;;;12.16;67.94;97903.44;6282279;20;2790912;-55
2022/02/17 11:02:01;;;;;;;;;9.00;9.00;;;;;12.36;68.15;97909.59;6280172;20;2764890;-53
2022/02/17 11:04:31;;;;;;;;;5.25;5.25;;;;;12.36;66.82;97923.03;6334561;20;1809759;-53
2022/02/17 11:07:02;;;;;;;;;13.20;11.20;;;;;12.48;67.27;97908.38;6338213;20;2786702;-52
2022/02/17 11:09:33;;;;;;;;;9.50;9.50;;;;;12.16;68.49;97884.59;6283977;20;2777385;-52
2022/02/17 11:12:01;;;;;;;;;12.50;11.00;;;;;12.19;68.60;97872.69;6285384;20;2788847;-53
2022/02/17 11:14:49;;;;;;;;;11.00;11.00;;;;;11.97;68.22;97874.78;6281311;20;2789893;-51
2022/02/17 11:17:17;;;;;;;;;8.50;8.00;;;;;12.11;67.37;97888.72;6285683;20;2753374;-50
2022/02/17 11:19:54;;;;;;;;;17.00;13.00;;;;;12.02;67.79;97869.81;6279330;20;2800298;-54
2022/02/17 11:22:23;;;;;;;;;11.80;10.20;;;;;12.26;67.39;97842.34;6339885;20;2783607;-54
2022/02/17 11:24:55;;;;;;;;;14.00;11.50;;;;;12.32;67.18;97854.34;6281960;20;2794497;-55
2022/02/17 11:27:24;;;;;;;;;16.33;12.67;;;;;12.55;66.93;97872.78;6280702;20;2805566;-55
2022/02/17 11:29:53;;;;;;;;;13.00;13.00;;;;;12.85;66.31;97861.66;6307246;20;3540853;-52